Carrier, Oklahoma
Current Conditions -  °F | °C
As of 1:56 PM on Wednesday 28 Jan 2015 (Local Time) from KEND Reporting Station
Broken Clouds Broken Clouds  
Wind Chill: 75°   Ceiling: 25000
Heat Index: 75°   Visibility: 10mi
Dew Point: 39°   Wind: 16mph
Humidity: 27%   Direction: 210°SSW
Pressure: 29.81"   Gusts: NA
Location:  36.48°N, 98.02°W
Report Text: KEND 281956Z 21014KT 10SM SCT190 BKN250 24/04 A2981 RMK AO2A SLP090
Loading
Personal Weather Stations






























Interactive Weather Map New forecast layout! Learn more

10-Day Weather Forecast

Advertisements
Track Severe Weather on mobile